Time;durP1;ratioP1;P1;durP2;ratioP2;P2;SDS_P1;SDS_P2;PMS_P1;PMS_P2;Temp;Humidity;BMP_temperature;BMP_pressure;BME280_temperature;BME280_humidity;BME280_pressure;Samples;Min_cycle;Max_cycle;Signal;HPM_P1;HPM_P2
2021/05/01 00:00:39;;;;;;;14.52;12.32;;;7.80;1.00;;;;;;5059351;28;20298;-76
2021/05/01 00:03:05;;;;;;;15.18;12.93;;;7.80;1.00;;;;;;5067052;28;20217;-74
2021/05/01 00:05:31;;;;;;;14.18;12.77;;;7.80;1.00;;;;;;5063341;28;20739;-77
2021/05/01 00:07:58;;;;;;;16.52;12.30;;;7.80;1.00;;;;;;5038465;28;20271;-78
2021/05/01 00:10:24;;;;;;;12.63;11.40;;;7.80;1.00;;;;;;5054557;28;20682;-77
2021/05/01 00:12:50;;;;;;;13.45;12.02;;;7.80;1.00;;;;;;5051750;28;20741;-78
2021/05/01 00:15:17;;;;;;;15.02;12.20;;;7.80;1.00;;;;;;5051154;28;20299;-75
2021/05/01 00:17:43;;;;;;;14.68;12.45;;;7.80;1.00;;;;;;5052171;28;20217;-77
2021/05/01 00:20:10;;;;;;;15.43;12.65;;;7.80;1.00;;;;;;5061791;28;21048;-77
2021/05/01 00:22:36;;;;;;;12.25;11.00;;;7.90;1.00;;;;;;5064989;28;20285;-77
2021/05/01 00:25:04;;;;;;;14.73;12.13;;;7.80;1.00;;;;;;5063852;28;20557;-76
2021/05/01 00:27:30;;;;;;;14.05;12.00;;;7.90;1.00;;;;;;5057775;28;20229;-79
2021/05/01 00:29:57;;;;;;;11.95;10.73;;;7.90;1.00;;;;;;5037302;28;20268;-77
2021/05/01 00:32:23;;;;;;;13.57;12.27;;;8.00;1.00;;;;;;5032928;28;20232;-78
2021/05/01 00:34:49;;;;;;;12.98;11.70;;;8.00;1.00;;;;;;5055861;28;20301;-79
2021/05/01 00:37:15;;;;;;;15.55;11.35;;;8.00;1.00;;;;;;5052622;28;20221;-75
2021/05/01 00:39:41;;;;;;;11.77;10.52;;;8.00;1.00;;;;;;5064992;28;20247;-74
2021/05/01 00:42:08;;;;;;;14.27;11.70;;;8.00;1.00;;;;;;5055229;28;20225;-76
2021/05/01 00:44:34;;;;;;;13.63;11.88;;;8.00;1.00;;;;;;5050469;28;20213;-77
2021/05/01 00:47:01;;;;;;;13.45;11.63;;;8.10;1.00;;;;;;5030784;28;20266;-78
2021/05/01 00:49:27;;;;;;;15.15;13.40;;;8.00;1.00;;;;;;5051854;28;20236;-77
2021/05/01 00:51:53;;;;;;;15.30;13.75;;;8.00;1.00;;;;;;5051054;28;20236;-79
2021/05/01 00:54:19;;;;;;;18.58;13.20;;;8.00;1.00;;;;;;5052165;28;20731;-77
2021/05/01 00:56:47;;;;;;;12.40;11.15;;;7.90;1.00;;;;;;5054802;28;20278;-77
2021/05/01 00:59:14;;;;;;;14.20;12.15;;;7.90;1.00;;;;;;5052945;28;20276;-77
2021/05/01 01:01:48;;;;;;;15.13;13.63;;;7.90;1.00;;;;;;5055418;28;20296;-76
2021/05/01 01:04:14;;;;;;;16.98;13.60;;;7.90;1.00;;;;;;5055062;28;20305;-77
2021/05/01 01:06:40;;;;;;;17.33;13.50;;;7.90;1.00;;;;;;5053839;28;20244;-78
2021/05/01 01:09:07;;;;;;;14.15;12.85;;;7.80;1.00;;;;;;5049642;28;20233;-76
2021/05/01 01:11:33;;;;;;;14.25;12.48;;;7.80;1.00;;;;;;5038631;28;20221;-76
2021/05/01 01:14:01;;;;;;;14.75;13.15;;;7.80;1.00;;;;;;5050799;28;22241;-77
2021/05/01 01:16:29;;;;;;;15.23;13.27;;;7.80;1.00;;;;;;5051684;28;20307;-78
2021/05/01 01:18:55;;;;;;;13.95;12.55;;;7.80;1.00;;;;;;5063266;28;20232;-78
2021/05/01 01:21:22;;;;;;;13.82;12.40;;;7.90;1.00;;;;;;5060922;28;20317;-76
2021/05/01 01:23:50;;;;;;;15.52;11.98;;;7.80;1.00;;;;;;5051394;28;20221;-78
2021/05/01 01:26:17;;;;;;;13.55;12.15;;;7.90;1.00;;;;;;5055294;28;20221;-78
2021/05/01 01:28:43;;;;;;;13.10;11.80;;;7.90;1.00;;;;;;5052812;28;20225;-78
2021/05/01 01:31:09;;;;;;;14.65;12.73;;;7.80;1.00;;;;;;5055581;28;20224;-76
2021/05/01 01:33:36;;;;;;;17.55;13.85;;;7.80;1.00;;;;;;5055102;28;20225;-77
2021/05/01 01:36:04;;;;;;;14.85;13.35;;;7.80;1.00;;;;;;5067720;28;23616;-77
2021/05/01 01:38:30;;;;;;;13.80;12.50;;;7.80;1.00;;;;;;5064894;28;20316;-76
2021/05/01 01:40:57;;;;;;;17.33;13.25;;;7.90;1.00;;;;;;5066029;28;21040;-79
2021/05/01 01:43:25;;;;;;;13.88;12.32;;;7.90;1.00;;;;;;5063181;28;20228;-77
2021/05/01 01:45:51;;;;;;;12.77;11.45;;;7.90;1.00;;;;;;5058247;28;20228;-79
2021/05/01 01:48:18;;;;;;;13.00;11.80;;;7.90;1.00;;;;;;5062460;28;20307;-78
2021/05/01 01:50:44;;;;;;;14.32;12.93;;;7.90;1.00;;;;;;5049618;28;20333;-76
2021/05/01 01:53:10;;;;;;;17.35;14.25;;;7.90;1.00;;;;;;5062686;28;20232;-78
2021/05/01 01:55:37;;;;;;;13.88;12.48;;;7.90;1.00;;;;;;5058858;28;20227;-76
2021/05/01 01:58:05;;;;;;;16.02;14.43;;;7.90;1.00;;;;;;5032501;28;20229;-75
2021/05/01 02:00:32;;;;;;;14.80;12.73;;;7.90;1.00;;;;;;5051800;28;21000;-77
2021/05/01 02:02:58;;;;;;;15.35;13.80;;;7.90;1.00;;;;;;5051935;28;20680;-78
2021/05/01 02:05:25;;;;;;;17.95;14.00;;;7.90;1.00;;;;;;5061130;28;20221;-77
2021/05/01 02:07:51;;;;;;;15.13;13.73;;;7.90;1.00;;;;;;5057522;28;20233;-77
2021/05/01 02:10:17;;;;;;;14.40;13.02;;;8.00;1.00;;;;;;5055937;28;21089;-77
2021/05/01 02:12:45;;;;;;;13.98;12.68;;;8.00;1.00;;;;;;5055658;28;20228;-76
2021/05/01 02:15:14;;;;;;;15.55;13.82;;;7.90;1.00;;;;;;5056977;28;20298;-79
2021/05/01 02:17:41;;;;;;;16.38;13.70;;;8.00;1.00;;;;;;5059641;28;20221;-77
2021/05/01 02:20:09;;;;;;;15.07;13.48;;;7.90;1.00;;;;;;5065754;28;20477;-75
2021/05/01 02:22:36;;;;;;;14.80;13.30;;;7.90;1.00;;;;;;5058578;28;20310;-78
2021/05/01 02:25:03;;;;;;;15.68;13.60;;;7.90;1.00;;;;;;5054803;28;20256;-77
2021/05/01 02:27:29;;;;;;;14.55;13.15;;;8.00;1.00;;;;;;5059520;28;20213;-77
2021/05/01 02:29:55;;;;;;;16.90;13.85;;;8.00;1.00;;;;;;5062674;28;20229;-76
2021/05/01 02:32:22;;;;;;;16.33;13.20;;;7.90;1.00;;;;;;5057643;28;20217;-77
2021/05/01 02:34:48;;;;;;;14.68;13.18;;;8.00;1.00;;;;;;5056439;28;20724;-76
2021/05/01 02:37:14;;;;;;;15.55;13.98;;;8.00;1.00;;;;;;5062113;28;20217;-78
2021/05/01 02:39:41;;;;;;;18.67;14.52;;;8.10;1.00;;;;;;5064524;28;20248;-77
2021/05/01 02:42:07;;;;;;;14.70;13.20;;;8.10;1.00;;;;;;5072926;28;20228;-77
2021/05/01 02:44:33;;;;;;;17.08;13.80;;;8.10;1.00;;;;;;5065274;28;20239;-78
2021/05/01 02:46:59;;;;;;;15.30;13.70;;;8.10;1.00;;;;;;5059479;28;20308;-77
2021/05/01 02:49:26;;;;;;;14.63;13.25;;;8.00;1.00;;;;;;5054291;28;20236;-77
2021/05/01 02:51:53;;;;;;;15.98;14.15;;;8.00;1.00;;;;;;5056195;28;21103;-78
2021/05/01 02:54:19;;;;;;;15.73;14.07;;;8.10;1.00;;;;;;5055477;28;20219;-78
2021/05/01 02:56:46;;;;;;;15.27;13.88;;;8.10;1.00;;;;;;5055779;28;20236;-74
2021/05/01 02:59:12;;;;;;;18.50;14.60;;;8.10;1.00;;;;;;5062441;28;20240;-77
2021/05/01 03:01:38;;;;;;;16.15;14.48;;;8.10;1.00;;;;;;5035812;28;20224;-78
2021/05/01 03:04:05;;;;;;;16.02;14.27;;;8.20;1.00;;;;;;5053572;28;20320;-77
2021/05/01 03:06:32;;;;;;;17.98;14.45;;;8.20;1.00;;;;;;5055637;28;20233;-78
2021/05/01 03:08:59;;;;;;;15.30;13.80;;;8.10;1.00;;;;;;5057598;28;20228;-76
2021/05/01 03:11:25;;;;;;;16.52;14.77;;;8.20;1.00;;;;;;5066765;28;20223;-78
2021/05/01 03:13:51;;;;;;;15.60;13.45;;;8.20;1.00;;;;;;5068140;28;20229;-76
2021/05/01 03:16:18;;;;;;;15.15;13.65;;;8.20;1.00;;;;;;5073135;28;20240;-78
2021/05/01 03:18:45;;;;;;;14.90;13.50;;;8.20;1.00;;;;;;5065948;28;20235;-77
2021/05/01 03:21:11;;;;;;;15.65;14.05;;;8.20;1.00;;;;;;5058068;28;21452;-78
2021/05/01 03:23:39;;;;;;;16.88;14.68;;;8.10;1.00;;;;;;5058770;28;20360;-77
2021/05/01 03:26:05;;;;;;;16.50;14.90;;;8.10;1.00;;;;;;5063315;28;20217;-75
2021/05/01 03:28:32;;;;;;;15.90;14.23;;;8.00;1.00;;;;;;5058815;28;20224;-75
2021/05/01 03:30:58;;;;;;;15.30;13.70;;;8.00;1.00;;;;;;5070401;28;20217;-77
2021/05/01 03:33:26;;;;;;;16.83;13.43;;;8.00;1.00;;;;;;5062703;28;20362;-77
2021/05/01 03:35:52;;;;;;;18.67;16.67;;;8.00;1.00;;;;;;5062032;28;20221;-76
2021/05/01 03:38:18;;;;;;;16.52;14.38;;;8.10;1.00;;;;;;5061576;28;20431;-78
2021/05/01 03:40:46;;;;;;;22.17;16.10;;;8.10;1.00;;;;;;5074934;28;20233;-78
2021/05/01 03:43:12;;;;;;;16.33;14.63;;;8.10;1.00;;;;;;5075566;28;20213;-75
2021/05/01 03:45:38;;;;;;;17.70;15.23;;;8.10;1.00;;;;;;5087037;27;20280;-74
2021/05/01 03:48:06;;;;;;;17.35;15.38;;;8.10;1.00;;;;;;5086880;27;20229;-75
2021/05/01 03:50:32;;;;;;;17.65;15.25;;;8.10;1.00;;;;;;5089107;27;20205;-76
2021/05/01 03:52:58;;;;;;;17.08;15.38;;;8.10;1.00;;;;;;5088477;27;20202;-74
2021/05/01 03:55:24;;;;;;;18.13;16.13;;;8.10;1.00;;;;;;5088234;27;20201;-76
2021/05/01 03:57:52;;;;;;;19.75;15.02;;;8.10;1.00;;;;;;5085476;27;20225;-75
2021/05/01 04:00:19;;;;;;;16.20;14.25;;;8.10;1.00;;;;;;5086557;27;20256;-76
2021/05/01 04:02:45;;;;;;;19.83;16.77;;;8.10;1.00;;;;;;5083555;27;20270;-75
2021/05/01 04:05:13;;;;;;;17.60;15.70;;;8.10;1.00;;;;;;5085172;28;21140;-75
2021/05/01 04:07:40;;;;;;;15.55;13.90;;;8.00;1.00;;;;;;5081038;28;20224;-74
2021/05/01 04:10:07;;;;;;;19.27;16.50;;;8.00;1.00;;;;;;5070054;28;20241;-74
2021/05/01 04:12:33;;;;;;;17.38;15.57;;;8.00;1.00;;;;;;5075469;28;20225;-74
2021/05/01 04:15:01;;;;;;;15.80;14.10;;;8.00;1.00;;;;;;5083163;28;20236;-74
2021/05/01 04:17:27;;;;;;;17.50;15.70;;;8.10;1.00;;;;;;5082695;28;20224;-75
2021/05/01 04:19:53;;;;;;;19.60;17.50;;;8.10;1.00;;;;;;5083659;28;20221;-74
2021/05/01 04:22:19;;;;;;;20.20;18.10;;;8.10;1.00;;;;;;5074784;28;20358;-75
2021/05/01 04:24:46;;;;;;;19.77;17.65;;;8.10;1.00;;;;;;5076304;28;20237;-75
2021/05/01 04:27:12;;;;;;;18.85;16.98;;;8.10;1.00;;;;;;5067345;28;20286;-76
2021/05/01 04:29:39;;;;;;;18.58;16.23;;;8.10;1.00;;;;;;5060329;28;20319;-77
2021/05/01 04:32:06;;;;;;;19.50;16.45;;;8.10;1.00;;;;;;5055898;28;20256;-76
2021/05/01 04:34:32;;;;;;;17.17;15.18;;;8.20;1.00;;;;;;5060699;28;20245;-75
2021/05/01 04:36:59;;;;;;;19.00;17.00;;;8.20;1.00;;;;;;5058246;28;20294;-77
2021/05/01 04:39:26;;;;;;;17.48;15.77;;;8.20;1.00;;;;;;5067759;28;20221;-75
2021/05/01 04:41:52;;;;;;;17.30;15.50;;;8.30;1.00;;;;;;5069901;28;20244;-76
2021/05/01 04:44:19;;;;;;;17.95;16.15;;;8.30;1.00;;;;;;5062605;28;20240;-77
2021/05/01 04:46:45;;;;;;;19.17;17.25;;;8.30;1.00;;;;;;5057191;28;20725;-76
2021/05/01 04:49:12;;;;;;;19.98;16.20;;;8.30;1.00;;;;;;5060020;28;20239;-76
2021/05/01 04:51:39;;;;;;;19.52;16.88;;;8.30;1.00;;;;;;5060932;28;20224;-75
2021/05/01 04:54:05;;;;;;;20.50;17.85;;;8.30;1.00;;;;;;5068423;28;20901;-76
2021/05/01 04:56:31;;;;;;;19.30;16.55;;;8.30;1.00;;;;;;5062031;28;20300;-78
2021/05/01 04:58:58;;;;;;;19.63;16.17;;;8.30;1.00;;;;;;5061110;28;20257;-77
2021/05/01 05:01:24;;;;;;;19.02;16.90;;;8.40;1.00;;;;;;5056419;28;20229;-77
2021/05/01 05:03:52;;;;;;;18.50;15.70;;;8.40;1.00;;;;;;5061874;28;20228;-76
2021/05/01 05:06:19;;;;;;;19.13;16.35;;;8.40;1.00;;;;;;5064420;28;20706;-77
2021/05/01 05:08:45;;;;;;;18.95;16.63;;;8.30;1.00;;;;;;5062683;28;20300;-76
2021/05/01 05:11:11;;;;;;;16.27;14.57;;;8.30;1.00;;;;;;5065902;28;21149;-77
2021/05/01 05:13:38;;;;;;;18.42;16.35;;;8.30;1.00;;;;;;5057132;28;22797;-77
2021/05/01 05:16:05;;;;;;;19.30;16.05;;;8.30;1.00;;;;;;5064461;28;20724;-76
2021/05/01 05:18:31;;;;;;;17.55;15.55;;;8.30;1.00;;;;;;5053044;28;20229;-76
2021/05/01 05:20:59;;;;;;;35.83;29.77;;;8.30;1.00;;;;;;5062258;28;20231;-79
2021/05/01 05:23:25;;;;;;;18.95;17.05;;;8.30;1.00;;;;;;5060173;28;20231;-78
2021/05/01 05:25:52;;;;;;;19.00;17.00;;;8.30;1.00;;;;;;5059387;28;20310;-79
2021/05/01 05:28:18;;;;;;;16.45;14.73;;;8.40;1.00;;;;;;5047136;28;20263;-78
2021/05/01 05:30:44;;;;;;;19.92;15.80;;;8.40;1.00;;;;;;5057071;28;20221;-77
2021/05/01 05:33:10;;;;;;;20.65;15.10;;;8.40;1.00;;;;;;5056536;28;20278;-76
2021/05/01 05:35:36;;;;;;;18.08;16.17;;;8.40;1.00;;;;;;5058525;28;20220;-77
2021/05/01 05:38:03;;;;;;;20.23;17.00;;;8.50;1.00;;;;;;5058840;28;20304;-76
2021/05/01 05:40:32;;;;;;;20.90;16.23;;;8.60;1.00;;;;;;5079244;28;20264;-76
2021/05/01 05:42:58;;;;;;;19.58;16.35;;;8.60;1.00;;;;;;5071019;28;20221;-77
2021/05/01 05:45:26;;;;;;;22.02;15.95;;;8.60;1.00;;;;;;5050276;28;20408;-79
2021/05/01 05:47:52;;;;;;;24.52;17.17;;;8.60;1.00;;;;;;5058290;28;20263;-79
2021/05/01 05:50:18;;;;;;;22.73;16.83;;;8.60;1.00;;;;;;5057503;28;20221;-79
2021/05/01 05:52:46;;;;;;;20.17;15.48;;;8.60;1.00;;;;;;5054264;28;20301;-78
2021/05/01 05:55:13;;;;;;;20.02;16.60;;;8.60;1.00;;;;;;5055134;28;20302;-78
2021/05/01 05:57:43;;;;;;;19.88;17.67;;;8.50;1.00;;;;;;5056643;28;20275;-76
2021/05/01 06:00:11;;;;;;;21.15;16.13;;;8.60;1.00;;;;;;5058334;28;20239;-79
2021/05/01 06:02:38;;;;;;;18.45;16.05;;;8.60;1.00;;;;;;5057260;28;20228;-76
2021/05/01 06:05:09;;;;;;;17.55;15.65;;;8.70;1.00;;;;;;5054031;28;20336;-75
2021/05/01 06:07:40;;;;;;;24.42;17.50;;;8.80;1.00;;;;;;5056205;28;20315;-77
2021/05/01 06:10:08;;;;;;;18.02;16.13;;;8.80;1.00;;;;;;5063366;28;20227;-76
2021/05/01 06:12:35;;;;;;;17.45;15.77;;;8.90;1.00;;;;;;5059779;28;20250;-79
2021/05/01 06:15:05;;;;;;;22.67;16.35;;;8.90;1.00;;;;;;5070115;28;20228;-77
2021/05/01 06:17:32;;;;;;;22.63;16.00;;;8.80;1.00;;;;;;5066686;28;20223;-77
2021/05/01 06:20:00;;;;;;;17.90;15.32;;;8.80;1.00;;;;;;5070930;28;20831;-78
2021/05/01 06:22:26;;;;;;;18.75;16.52;;;8.80;1.00;;;;;;5058618;28;20233;-78
2021/05/01 06:24:53;;;;;;;18.23;16.42;;;8.90;1.00;;;;;;5045418;28;20473;-79
2021/05/01 06:27:20;;;;;;;20.85;17.05;;;8.90;1.00;;;;;;5055405;28;20237;-78
2021/05/01 06:29:46;;;;;;;24.48;17.67;;;9.00;1.00;;;;;;5066972;28;20285;-76
2021/05/01 06:32:14;;;;;;;23.50;18.42;;;9.00;1.00;;;;;;5063503;28;20291;-79
2021/05/01 06:34:45;;;;;;;25.00;18.10;;;9.00;1.00;;;;;;5062733;28;20327;-78
2021/05/01 06:37:16;;;;;;;20.67;18.55;;;9.10;1.00;;;;;;5069336;28;20217;-77
2021/05/01 06:39:43;;;;;;;27.10;18.23;;;9.20;1.00;;;;;;5077023;28;20300;-77
2021/05/01 06:42:13;;;;;;;22.25;18.27;;;9.30;1.00;;;;;;5064628;28;20309;-78
2021/05/01 06:44:43;;;;;;;21.85;18.75;;;9.40;1.00;;;;;;5067879;28;20293;-77
2021/05/01 06:47:11;;;;;;;22.83;18.10;;;9.30;1.00;;;;;;5070650;28;20313;-77
2021/05/01 06:49:47;;;;;;;22.80;18.55;;;9.40;1.00;;;;;;5069898;28;20311;-76
2021/05/01 06:52:16;;;;;;;23.85;20.67;;;9.40;1.00;;;;;;5070317;28;20221;-77
2021/05/01 06:54:44;;;;;;;19.08;17.10;;;9.50;1.00;;;;;;5071326;28;20248;-77
2021/05/01 06:57:11;;;;;;;19.58;17.02;;;9.50;1.00;;;;;;5070619;28;20257;-79
2021/05/01 06:59:39;;;;;;;24.95;18.27;;;9.50;1.00;;;;;;5066971;28;21120;-77
2021/05/01 07:02:05;;;;;;;22.67;18.45;;;9.60;1.00;;;;;;5070730;28;20221;-76
2021/05/01 07:04:32;;;;;;;20.80;17.13;;;9.60;1.00;;;;;;5073712;28;20337;-76
2021/05/01 07:07:00;;;;;;;23.25;18.27;;;9.70;1.00;;;;;;5073081;28;20229;-77
2021/05/01 07:09:26;;;;;;;20.25;17.17;;;9.70;1.00;;;;;;5046223;28;20283;-77
2021/05/01 07:11:53;;;;;;;21.17;17.52;;;9.60;1.00;;;;;;5076814;28;20353;-79
2021/05/01 07:14:21;;;;;;;23.15;18.30;;;9.60;1.00;;;;;;5075588;28;20258;-77
2021/05/01 07:16:48;;;;;;;22.05;18.20;;;9.70;1.00;;;;;;5067982;28;20275;-77
2021/05/01 07:19:16;;;;;;;23.15;17.45;;;9.60;1.00;;;;;;5075122;28;20284;-77
2021/05/01 07:21:42;;;;;;;23.65;17.67;;;9.50;1.00;;;;;;5071148;28;20225;-77
2021/05/01 07:24:10;;;;;;;24.88;18.70;;;9.50;1.00;;;;;;5071101;28;20235;-76
2021/05/01 07:26:39;;;;;;;22.50;18.52;;;9.40;1.00;;;;;;5076054;28;20275;-76
2021/05/01 07:29:08;;;;;;;25.85;19.73;;;9.50;1.00;;;;;;5070919;28;20232;-76
2021/05/01 07:31:40;;;;;;;27.75;20.75;;;9.50;1.00;;;;;;5072792;28;20220;-78
2021/05/01 07:34:10;;;;;;;26.10;20.50;;;9.30;1.00;;;;;;5062936;28;21180;-76
2021/05/01 07:36:39;;;;;;;23.58;20.08;;;9.30;1.00;;;;;;5071431;28;21012;-78
2021/05/01 07:39:06;;;;;;;24.17;19.17;;;9.30;1.00;;;;;;5084485;28;20348;-76
2021/05/01 07:41:36;;;;;;;24.10;20.40;;;9.40;1.00;;;;;;5085261;28;20213;-77
2021/05/01 07:44:03;;;;;;;23.90;20.10;;;9.50;1.00;;;;;;5071676;28;20562;-77
2021/05/01 07:46:33;;;;;;;24.92;18.20;;;9.60;1.00;;;;;;5072663;28;20235;-80
2021/05/01 07:48:59;;;;;;;24.23;20.25;;;9.60;1.00;;;;;;5075906;28;20263;-79
2021/05/01 07:51:26;;;;;;;23.65;17.83;;;9.70;1.00;;;;;;5071891;28;20806;-78
2021/05/01 07:53:53;;;;;;;21.33;17.85;;;9.60;1.00;;;;;;5073446;28;20238;-79
2021/05/01 07:56:19;;;;;;;22.27;18.70;;;9.80;1.00;;;;;;5069395;28;20331;-79
2021/05/01 07:58:46;;;;;;;21.17;16.77;;;9.90;1.00;;;;;;5076535;28;20221;-78
2021/05/01 08:01:12;;;;;;;25.20;18.77;;;10.00;1.00;;;;;;5072659;28;20239;-78
2021/05/01 08:03:39;;;;;;;21.75;18.13;;;10.10;1.00;;;;;;5074640;28;21407;-76
2021/05/01 08:06:05;;;;;;;20.55;18.15;;;10.10;1.00;;;;;;5094107;27;20215;-75
2021/05/01 08:08:32;;;;;;;20.75;18.48;;;10.20;1.00;;;;;;5091802;28;20225;-81
2021/05/01 08:10:58;;;;;;;23.13;17.73;;;10.20;1.00;;;;;;5090243;28;20228;-77
2021/05/01 08:13:24;;;;;;;25.92;18.17;;;10.20;1.00;;;;;;5077224;28;20221;-77
2021/05/01 08:15:51;;;;;;;20.63;17.25;;;10.30;1.00;;;;;;5080394;28;20351;-75
2021/05/01 08:18:17;;;;;;;21.50;17.60;;;10.50;1.00;;;;;;5075749;28;21466;-75
2021/05/01 08:20:44;;;;;;;19.40;16.95;;;10.60;1.00;;;;;;5073521;28;20228;-77
2021/05/01 08:23:10;;;;;;;23.80;19.15;;;10.90;1.00;;;;;;5071844;28;20227;-77
2021/05/01 08:25:36;;;;;;;23.92;17.88;;;11.10;1.00;;;;;;5138128;22;20304;-78
2021/05/01 08:28:06;;;;;;;21.27;17.87;;;11.20;1.00;;;;;;5147403;27;20343;-81
2021/05/01 08:30:32;;;;;;;17.73;15.77;;;11.40;1.00;;;;;;5128057;27;20432;-80
2021/05/01 08:32:59;;;;;;;19.98;17.83;;;11.70;1.00;;;;;;5126385;27;20489;-79
2021/05/01 08:35:26;;;;;;;22.65;18.08;;;12.00;1.00;;;;;;5134914;27;20323;-79
2021/05/01 08:37:52;;;;;;;19.83;17.50;;;12.10;1.00;;;;;;5135073;27;20874;-79
2021/05/01 08:40:19;;;;;;;18.93;16.93;;;12.20;1.00;;;;;;5147985;27;20466;-80
2021/05/01 08:42:47;;;;;;;22.60;19.07;;;12.10;1.00;;;;;;5141695;27;20504;-79
2021/05/01 08:45:15;;;;;;;19.03;16.57;;;12.40;1.00;;;;;;5146544;27;20447;-78
2021/05/01 08:47:43;;;;;;;18.90;15.53;;;12.80;1.00;;;;;;5133072;27;20438;-81
2021/05/01 08:50:44;;;;;;;17.30;15.63;;;13.30;1.00;;;;;;5128980;27;20896;-81
2021/05/01 08:53:11;;;;;;;26.80;23.90;;;13.30;1.00;;;;;;5119638;27;20450;-81
2021/05/01 08:55:38;;;;;;;18.10;15.03;;;13.20;1.00;;;;;;5129647;27;20437;-83
2021/05/01 08:58:07;;;;;;;15.77;14.17;;;13.00;1.00;;;;;;5127586;27;20448;-80
2021/05/01 09:00:35;;;;;;;16.90;14.60;;;13.00;1.00;;;;;;5126218;27;20468;-79
2021/05/01 09:03:04;;;;;;;16.40;14.70;;;13.00;1.00;;;;;;5127904;27;20529;-82
2021/05/01 09:05:31;;;;;;;18.93;14.70;;;13.30;1.00;;;;;;5129487;27;20463;-82
2021/05/01 09:07:59;;;;;;;17.80;15.60;;;13.20;1.00;;;;;;5135137;27;20539;-81
2021/05/01 09:10:27;;;;;;;19.40;14.93;;;13.30;1.00;;;;;;5119985;27;20457;-81
2021/05/01 09:12:54;;;;;;;16.23;14.10;;;13.50;1.00;;;;;;5121152;27;20468;-81
2021/05/01 09:15:21;;;;;;;18.60;16.63;;;13.50;1.00;;;;;;5101828;27;20449;-81
2021/05/01 09:17:48;;;;;;;21.03;15.80;;;13.30;1.00;;;;;;5120420;27;20566;-81
2021/05/01 09:20:16;;;;;;;18.67;15.83;;;13.10;1.00;;;;;;5125049;27;20495;-81
2021/05/01 09:22:58;;;;;;;17.17;15.37;;;13.00;1.00;;;;;;5103063;27;20537;-80
2021/05/01 09:25:26;;;;;;;21.67;14.93;;;13.00;1.00;;;;;;5124210;27;20541;-81
2021/05/01 09:28:00;;;;;;;16.70;14.77;;;13.10;1.00;;;;;;5121813;27;20538;-80
2021/05/01 09:30:28;;;;;;;18.53;15.50;;;13.70;1.00;;;;;;5131452;27;20560;-80
2021/05/01 09:33:21;;;;;;;16.47;14.83;;;14.40;1.00;;;;;;5128838;27;20450;-79
2021/05/01 09:35:52;;;;;;;17.10;14.00;;;15.20;1.00;;;;;;5137639;27;20414;-81
2021/05/01 09:38:20;;;;;;;15.60;14.00;;;16.30;1.00;;;;;;5126703;27;20435;-80
2021/05/01 09:40:47;;;;;;;14.70;13.20;;;17.30;1.00;;;;;;5133006;27;20507;-80
2021/05/01 09:43:14;;;;;;;17.07;15.27;;;17.30;1.00;;;;;;5132496;27;20568;-84
2021/05/01 09:45:40;;;;;;;17.70;15.93;;;17.20;1.00;;;;;;5131797;27;20470;-84
2021/05/01 09:48:14;;;;;;;15.00;13.50;;;16.90;1.00;;;;;;5126771;27;20440;-85
2021/05/01 09:50:42;;;;;;;15.23;13.57;;;17.10;1.00;;;;;;5131997;27;20404;-86
2021/05/01 09:53:12;;;;;;;15.70;14.00;;;17.30;1.00;;;;;;5135875;27;20472;-83
2021/05/01 09:55:47;;;;;;;18.70;17.10;;;18.00;1.00;;;;;;5129710;27;20426;-84
2021/05/01 09:58:15;;;;;;;14.33;13.10;;;18.40;1.00;;;;;;5138489;27;20451;-85
2021/05/01 10:00:41;;;;;;;15.83;14.30;;;18.00;1.00;;;;;;5117470;27;20540;-84
2021/05/01 10:03:23;;;;;;;14.90;13.60;;;17.60;1.00;;;;;;5131375;27;21438;-80
2021/05/01 10:05:51;;;;;;;16.40;14.70;;;17.20;1.00;;;;;;5116943;27;20554;-85
2021/05/01 10:08:19;;;;;;;15.07;13.57;;;16.80;1.00;;;;;;5119068;27;20450;-86
2021/05/01 10:10:50;;;;;;;15.87;14.30;;;16.30;1.00;;;;;;5135087;27;20477;-85
2021/05/01 10:13:17;;;;;;;15.50;14.10;;;16.00;1.00;;;;;;5138583;27;20430;-86
2021/05/01 10:15:44;;;;;;;15.43;13.83;;;15.80;1.00;;;;;;5143252;27;20440;-85
2021/05/01 10:18:12;;;;;;;15.50;14.10;;;15.50;1.00;;;;;;5136811;27;20455;-86
2021/05/01 10:20:46;;;;;;;15.07;13.63;;;15.20;1.00;;;;;;5134801;27;20454;-85
2021/05/01 10:23:13;;;;;;;14.83;13.43;;;14.80;1.00;;;;;;5124579;27;20482;-87
2021/05/01 10:25:43;;;;;;;15.13;13.47;;;14.70;1.00;;;;;;5133247;27;20425;-87
2021/05/01 10:28:13;;;;;;;16.40;14.50;;;14.50;1.00;;;;;;5126533;27;20446;-86
2021/05/01 10:30:44;;;;;;;16.13;14.07;;;14.30;1.00;;;;;;5134155;27;20499;-82
2021/05/01 10:33:24;;;;;;;16.47;14.87;;;14.20;1.00;;;;;;5136669;27;20445;-83
2021/05/01 10:35:54;;;;;;;16.50;14.90;;;14.20;1.00;;;;;;5131442;27;20443;-82
2021/05/01 10:38:22;;;;;;;18.07;14.73;;;14.00;1.00;;;;;;5122869;27;20428;-81
2021/05/01 10:40:50;;;;;;;14.67;12.63;;;14.00;1.00;;;;;;5125544;27;20413;-79
2021/05/01 10:43:20;;;;;;;14.83;13.47;;;13.90;1.00;;;;;;5113881;27;21803;-80
2021/05/01 10:45:55;;;;;;;15.70;14.20;;;13.90;1.00;;;;;;5139323;27;21021;-80
2021/05/01 10:48:23;;;;;;;21.77;19.80;;;14.10;1.00;;;;;;5128486;27;20476;-82
2021/05/01 10:51:05;;;;;;;13.67;12.23;;;14.30;1.00;;;;;;5137032;27;20491;-81
2021/05/01 10:53:31;;;;;;;14.70;13.30;;;14.30;1.00;;;;;;5132565;27;20532;-81
2021/05/01 10:55:58;;;;;;;15.87;14.30;;;14.30;1.00;;;;;;5143641;27;20448;-81
2021/05/01 10:58:38;;;;;;;16.27;13.00;;;14.30;1.00;;;;;;5134784;27;20879;-81
2021/05/01 11:01:05;;;;;;;13.73;12.23;;;14.20;1.00;;;;;;5135531;27;20468;-80
2021/05/01 11:03:37;;;;;;;15.27;13.77;;;14.40;1.00;;;;;;5129643;27;20466;-79
2021/05/01 11:06:07;;;;;;;15.37;13.37;;;14.80;1.00;;;;;;5133432;27;20442;-79
2021/05/01 11:08:41;;;;;;;15.00;13.43;;;15.30;1.00;;;;;;5131738;27;20600;-79
2021/05/01 11:11:11;;;;;;;15.13;13.60;;;15.80;1.00;;;;;;5132907;27;20424;-80
2021/05/01 11:13:42;;;;;;;15.07;12.60;;;16.10;1.00;;;;;;5134964;27;20415;-80
2021/05/01 11:16:10;;;;;;;14.23;12.80;;;16.50;1.00;;;;;;5138714;27;21353;-80
2021/05/01 11:18:38;;;;;;;14.83;13.43;;;17.00;1.00;;;;;;5126878;27;20495;-79
2021/05/01 11:21:08;;;;;;;14.47;12.10;;;17.30;1.00;;;;;;5124993;27;20463;-80
2021/05/01 11:23:35;;;;;;;14.60;13.20;;;17.70;1.00;;;;;;5131045;27;20518;-79
2021/05/01 11:26:05;;;;;;;15.70;14.17;;;18.00;1.00;;;;;;5134461;27;20449;-81
2021/05/01 11:28:33;;;;;;;14.77;13.40;;;18.50;1.00;;;;;;5137053;27;20517;-81
2021/05/01 11:31:01;;;;;;;13.57;12.17;;;19.40;1.00;;;;;;5143107;27;20448;-80
2021/05/01 11:33:28;;;;;;;14.17;12.83;;;20.00;1.00;;;;;;5128612;27;21066;-81
2021/05/01 11:35:54;;;;;;;13.57;12.33;;;20.30;1.00;;;;;;5137985;27;20441;-79
2021/05/01 11:38:27;;;;;;;13.83;12.50;;;20.00;1.00;;;;;;5136057;27;20464;-81
2021/05/01 11:40:57;;;;;;;16.63;14.80;;;19.80;1.00;;;;;;5121652;27;20479;-80
2021/05/01 11:43:26;;;;;;;15.77;14.17;;;19.50;1.00;;;;;;5130052;27;21122;-79
2021/05/01 11:46:10;;;;;;;14.60;13.33;;;19.00;1.00;;;;;;5140012;27;20445;-81
2021/05/01 11:48:45;;;;;;;17.33;15.63;;;18.50;1.00;;;;;;5133492;27;20422;-79
2021/05/01 11:51:16;;;;;;;13.80;12.60;;;17.80;1.00;;;;;;5143284;27;20414;-80
2021/05/01 11:53:45;;;;;;;13.93;12.40;;;17.30;1.00;;;;;;5137240;27;20447;-79
2021/05/01 11:56:27;;;;;;;14.63;13.23;;;16.80;1.00;;;;;;5144057;27;20449;-81
2021/05/01 11:59:07;;;;;;;13.40;12.10;;;16.40;1.00;;;;;;5135395;27;20435;-81
2021/05/01 12:01:41;;;;;;;14.77;13.37;;;16.00;1.00;;;;;;5139289;27;20437;-81
2021/05/01 12:04:08;;;;;;;18.60;15.70;;;15.70;1.00;;;;;;5139144;27;21265;-79
2021/05/01 12:06:39;;;;;;;13.10;11.90;;;15.40;1.00;;;;;;5135708;27;20403;-79
2021/05/01 12:09:09;;;;;;;15.60;13.93;;;15.30;1.00;;;;;;5138957;27;20441;-80
2021/05/01 12:11:37;;;;;;;14.63;13.27;;;15.50;1.00;;;;;;5137447;27;20433;-80
2021/05/01 12:14:09;;;;;;;15.80;14.17;;;15.80;1.00;;;;;;5130616;27;21086;-80
2021/05/01 12:16:36;;;;;;;14.90;13.43;;;16.20;1.00;;;;;;5139666;27;20461;-80
2021/05/01 12:19:03;;;;;;;12.57;11.33;;;16.50;1.00;;;;;;5138153;27;21208;-81
2021/05/01 12:21:31;;;;;;;14.73;11.57;;;16.80;1.00;;;;;;5138567;27;20525;-81
2021/05/01 12:23:59;;;;;;;12.87;11.77;;;16.90;1.00;;;;;;5135771;27;20459;-81
2021/05/01 12:26:40;;;;;;;16.13;12.90;;;16.90;1.00;;;;;;5141002;27;20424;-81
2021/05/01 12:29:29;;;;;;;17.27;15.47;;;16.70;1.00;;;;;;5138653;27;20446;-81
2021/05/01 12:31:58;;;;;;;13.10;11.80;;;16.80;1.00;;;;;;5133956;27;20890;-80
2021/05/01 12:34:59;;;;;;;14.77;13.23;;;16.50;1.00;;;;;;5137150;27;20472;-80
2021/05/01 12:37:27;;;;;;;15.10;13.40;;;16.30;1.00;;;;;;5133235;27;20526;-80
2021/05/01 12:40:04;;;;;;;13.57;12.20;;;16.00;1.00;;;;;;5136038;27;20528;-81
2021/05/01 12:42:32;;;;;;;13.83;12.47;;;15.70;1.00;;;;;;5133385;27;20661;-81
2021/05/01 12:44:59;;;;;;;13.23;11.97;;;15.40;1.00;;;;;;5134227;27;20468;-81
2021/05/01 12:47:46;;;;;;;13.90;12.50;;;15.30;1.00;;;;;;5133203;27;20438;-80